Terminal Aerodrome Forecast
Issued by NWS

Home | Current Version | Previous Version | Text Only | Print | Product List | Glossary On
Versions: 1 2 3 4 5 6 7 8 9 10 11 12 13 14 15 16 17 18 19 20 21
000
FTUS44 KMAF 270500
TAFINK
TAF
KINK 270533Z 2706/2806 09012KT P6SM OVC025
     FM270900 08012KT 3SM -SN OVC015
     FM271600 08012KT P6SM OVC015=

USA.gov is the U.S. government's official web portal to all federal, state and local government web resources and services.